createdAt,value
2019-02-17T00:00:19.649Z,51.23
2019-02-17T00:02:48.385Z,54.23
2019-02-17T00:05:17.175Z,52.00
2019-02-17T00:07:45.980Z,54.50
2019-02-17T00:10:14.868Z,51.23
2019-02-17T00:12:45.703Z,50.60
2019-02-17T00:15:14.729Z,51.80
2019-02-17T00:17:43.209Z,57.20
2019-02-17T00:20:14.217Z,52.47
2019-02-17T00:22:43.103Z,51.90
2019-02-17T00:25:11.633Z,44.58
2019-02-17T00:27:40.373Z,50.55
2019-02-17T00:30:13.137Z,46.27
2019-02-17T00:32:41.621Z,57.83
2019-02-17T00:35:10.610Z,46.23
2019-02-17T00:37:39.065Z,47.80
2019-02-17T00:40:11.153Z,41.70
2019-02-17T00:42:41.249Z,47.70
2019-02-17T00:45:12.013Z,47.53
2019-02-17T00:47:40.489Z,43.65
2019-02-17T00:50:09.677Z,42.70
2019-02-17T00:52:39.665Z,46.00
2019-02-17T00:55:08.727Z,51.03
2019-02-17T00:57:37.473Z,46.87
2019-02-17T01:00:13.391Z,39.73
2019-02-17T01:02:42.288Z,44.57
2019-02-17T01:05:11.105Z,47.70
2019-02-17T01:07:40.342Z,48.60
2019-02-17T01:10:09.260Z,51.10
2019-02-17T01:12:37.749Z,56.17
2019-02-17T01:15:09.292Z,51.33
2019-02-17T01:17:37.748Z,46.20
2019-02-17T01:20:10.550Z,44.43
2019-02-17T01:22:39.402Z,40.87
2019-02-17T01:25:11.452Z,45.70
2019-02-17T01:27:41.282Z,40.83
2019-02-17T01:30:12.892Z,44.07
2019-02-17T01:32:41.404Z,44.37
2019-02-17T01:35:10.194Z,41.13
2019-02-17T01:37:38.671Z,44.77
2019-02-17T01:40:09.618Z,43.43
2019-02-17T01:42:38.510Z,44.37
2019-02-17T01:45:09.362Z,43.17
2019-02-17T01:47:38.219Z,44.33
2019-02-17T01:50:09.301Z,45.07
2019-02-17T01:52:38.155Z,47.43
2019-02-17T01:55:08.071Z,44.37
2019-02-17T01:57:36.626Z,36.53
2019-02-17T02:00:08.153Z,42.80
2019-02-17T02:02:36.849Z,42.37
2019-02-17T02:05:06.987Z,39.90
2019-02-17T02:07:35.773Z,44.90
2019-02-17T02:10:06.844Z,43.53
2019-02-17T02:12:35.605Z,48.30
2019-02-17T02:15:05.956Z,43.73
2019-02-17T02:17:34.418Z,48.80
2019-02-17T02:20:03.274Z,46.33
2019-02-17T02:22:31.960Z,47.17
2019-02-17T02:25:00.412Z,41.87
2019-02-17T02:27:29.258Z,47.33
2019-02-17T02:29:58.040Z,39.93
2019-02-17T02:32:26.757Z,45.40
2019-02-17T02:34:55.501Z,43.30
2019-02-17T02:37:24.283Z,41.47
2019-02-17T02:39:52.731Z,51.10
2019-02-17T02:42:23.092Z,44.87
2019-02-17T02:44:51.533Z,37.57
2019-02-17T02:47:20.342Z,40.53
2019-02-17T02:49:48.921Z,42.93
2019-02-17T02:52:19.297Z,45.00
2019-02-17T02:54:47.751Z,43.73
2019-02-17T02:57:16.503Z,44.60
2019-02-17T02:59:52.344Z,50.33
2019-02-17T03:02:15.857Z,39.87
2019-02-17T03:04:44.406Z,46.33
2019-02-17T03:07:12.921Z,45.20
2019-02-17T03:09:41.409Z,50.97
2019-02-17T03:12:10.279Z,49.93
2019-02-17T03:14:39.180Z,49.20
2019-02-17T03:17:07.698Z,42.73
2019-02-17T03:19:36.475Z,42.27
2019-02-17T03:22:04.974Z,45.70
2019-02-17T03:24:33.436Z,43.03
2019-02-17T03:27:01.893Z,47.73
2019-02-17T03:29:30.429Z,44.40
2019-02-17T03:31:58.972Z,47.73
2019-02-17T03:34:27.707Z,42.17
2019-02-17T03:36:58.853Z,39.83
2019-02-17T03:39:27.653Z,44.53
2019-02-17T03:41:57.577Z,42.90
2019-02-17T03:44:27.580Z,45.43
2019-02-17T03:46:56.093Z,49.10
2019-02-17T03:49:24.541Z,46.10
2019-02-17T03:51:53.348Z,46.40
2019-02-17T03:54:23.207Z,43.73
2019-02-17T03:56:51.918Z,49.03
2019-02-17T03:59:20.726Z,53.87
2019-02-17T04:01:49.639Z,43.40
2019-02-17T04:04:20.029Z,45.13
2019-02-17T04:06:48.509Z,45.47
2019-02-17T04:09:18.333Z,44.17
2019-02-17T04:11:46.800Z,39.43
2019-02-17T04:14:15.293Z,47.70
2019-02-17T04:16:43.952Z,46.10
2019-02-17T04:19:12.422Z,43.90
2019-02-17T04:21:40.947Z,48.77
2019-02-17T04:24:09.415Z,44.07
2019-02-17T04:26:37.938Z,47.30
2019-02-17T04:29:06.483Z,41.17
2019-02-17T04:31:35.247Z,36.13
2019-02-17T04:34:04.052Z,41.30
2019-02-17T04:36:32.924Z,36.10
2019-02-17T04:39:03.079Z,37.13
2019-02-17T04:41:31.548Z,37.97
2019-02-17T04:44:00.426Z,38.63
2019-02-17T04:46:30.618Z,38.93
2019-02-17T04:48:59.420Z,40.63
2019-02-17T04:51:28.191Z,36.13
2019-02-17T04:53:56.646Z,40.20
2019-02-17T04:56:25.136Z,36.60
2019-02-17T04:58:53.865Z,40.73
2019-02-17T05:01:22.650Z,38.17
2019-02-17T05:03:51.149Z,41.07
2019-02-17T05:06:19.925Z,40.87
2019-02-17T05:08:50.012Z,37.87
2019-02-17T05:11:18.558Z,36.67
2019-02-17T05:13:47.336Z,36.03
2019-02-17T05:16:17.152Z,41.83
2019-02-17T05:18:45.902Z,37.07
2019-02-17T05:21:14.374Z,36.20
2019-02-17T05:23:42.897Z,45.00
2019-02-17T05:26:11.385Z,40.43
2019-02-17T05:28:40.166Z,46.67
2019-02-17T05:31:08.680Z,41.80
2019-02-17T05:33:37.446Z,40.80
2019-02-17T05:36:06.270Z,43.97
2019-02-17T05:38:35.086Z,34.73
2019-02-17T05:41:03.648Z,35.67
2019-02-17T05:43:32.176Z,45.80
2019-02-17T05:46:00.916Z,44.23
2019-02-17T05:48:29.930Z,39.23
2019-02-17T05:50:58.394Z,43.23
2019-02-17T05:53:27.148Z,44.40
2019-02-17T05:55:57.319Z,43.20
2019-02-17T05:58:25.796Z,42.27
2019-02-17T06:01:03.245Z,40.33
2019-02-17T06:03:24.765Z,40.47
2019-02-17T06:05:53.286Z,42.17
2019-02-17T06:08:21.738Z,44.90
2019-02-17T06:10:50.545Z,43.33
2019-02-17T06:13:19.303Z,53.03
2019-02-17T06:15:49.357Z,53.90
2019-02-17T06:18:20.931Z,52.87
2019-02-17T06:20:50.947Z,55.17
2019-02-17T06:23:19.484Z,50.80
2019-02-17T06:25:50.989Z,55.40
2019-02-17T06:28:19.620Z,47.80
2019-02-17T06:30:49.810Z,53.93
2019-02-17T06:33:18.706Z,49.33
2019-02-17T06:35:47.183Z,51.80
2019-02-17T06:38:15.633Z,51.27
2019-02-17T06:40:45.373Z,57.43
2019-02-17T06:43:13.884Z,60.33
2019-02-17T06:45:44.184Z,52.87
2019-02-17T06:48:12.709Z,53.57
2019-02-17T06:50:41.343Z,58.03
2019-02-17T06:53:09.955Z,58.37
2019-02-17T06:55:40.157Z,50.67
2019-02-17T06:58:09.036Z,47.83
2019-02-17T07:00:45.213Z,53.27
2019-02-17T07:03:14.429Z,56.37
2019-02-17T07:05:44.903Z,51.77
2019-02-17T07:08:13.683Z,51.43
2019-02-17T07:10:42.201Z,55.47
2019-02-17T07:13:10.774Z,52.53
2019-02-17T07:15:39.591Z,49.53
2019-02-17T07:18:08.088Z,48.50
2019-02-17T07:20:36.567Z,51.40
2019-02-17T07:23:05.090Z,55.13
2019-02-17T07:25:33.923Z,50.00
2019-02-17T07:28:02.419Z,52.03
2019-02-17T07:30:31.247Z,52.77
2019-02-17T07:33:02.616Z,57.00
2019-02-17T07:35:31.372Z,47.67
2019-02-17T07:38:01.944Z,49.40
2019-02-17T07:40:30.725Z,56.37
2019-02-17T07:42:59.206Z,54.17
2019-02-17T07:45:28.070Z,53.03
2019-02-17T07:47:56.878Z,55.77
2019-02-17T07:50:25.643Z,52.83
2019-02-17T07:52:54.209Z,54.47
2019-02-17T07:55:23.954Z,53.97
2019-02-17T07:57:54.218Z,51.37
2019-02-17T08:00:23.070Z,47.73
2019-02-17T08:02:51.620Z,50.17
2019-02-17T08:05:21.058Z,51.47
2019-02-17T08:07:49.826Z,52.17
2019-02-17T08:10:18.304Z,53.83
2019-02-17T08:12:46.909Z,49.47
2019-02-17T08:15:15.384Z,55.63
2019-02-17T08:17:44.784Z,44.27
2019-02-17T08:20:13.274Z,51.85
2019-02-17T08:22:41.724Z,48.55
2019-02-17T08:25:19.380Z,50.58
2019-02-17T08:27:43.228Z,43.95
2019-02-17T08:30:13.390Z,43.33
2019-02-17T08:32:44.060Z,48.98
2019-02-17T08:35:12.137Z,39.90
2019-02-17T08:37:40.743Z,38.58
2019-02-17T08:40:10.676Z,44.10
2019-02-17T08:42:39.124Z,38.30
2019-02-17T08:45:09.236Z,45.48
2019-02-17T08:47:37.721Z,36.40
2019-02-17T08:50:11.106Z,36.23
2019-02-17T08:52:39.852Z,38.60
2019-02-17T08:55:10.088Z,37.45
2019-02-17T08:57:38.542Z,33.50
2019-02-17T09:00:12.814Z,37.55
2019-02-17T09:02:41.308Z,38.95
2019-02-17T09:05:10.374Z,40.35
2019-02-17T09:07:38.819Z,40.48
2019-02-17T09:10:10.805Z,39.78
2019-02-17T09:12:39.483Z,42.20
2019-02-17T09:15:12.277Z,36.20
2019-02-17T09:17:40.834Z,32.33
2019-02-17T09:20:10.944Z,38.40
2019-02-17T09:22:39.420Z,35.10
2019-02-17T09:25:10.601Z,40.50
2019-02-17T09:27:39.132Z,37.15
2019-02-17T09:30:13.910Z,33.92
2019-02-17T09:32:42.460Z,35.40
2019-02-17T09:35:10.936Z,34.15
2019-02-17T09:37:39.405Z,35.28
2019-02-17T09:40:12.842Z,38.40
2019-02-17T09:42:41.311Z,43.40
2019-02-17T09:45:12.829Z,32.50
2019-02-17T09:47:41.705Z,35.85
2019-02-17T09:50:12.399Z,34.88
2019-02-17T09:52:40.933Z,33.25
2019-02-17T09:55:11.276Z,32.58
2019-02-17T09:57:40.057Z,33.90
2019-02-17T10:00:14.005Z,31.65
2019-02-17T10:02:42.466Z,33.98
2019-02-17T10:05:12.193Z,38.45
2019-02-17T10:07:41.052Z,37.08
2019-02-17T10:10:12.223Z,33.50
2019-02-17T10:12:40.773Z,36.17
2019-02-17T10:15:11.879Z,33.38
2019-02-17T10:17:40.413Z,33.90
2019-02-17T10:20:14.720Z,40.40
2019-02-17T10:22:43.205Z,38.10
2019-02-17T10:25:11.809Z,45.33
2019-02-17T10:27:40.307Z,33.85
2019-02-17T10:30:16.749Z,37.85
2019-02-17T10:32:45.257Z,31.85
2019-02-17T10:35:13.709Z,35.30
2019-02-17T10:37:42.472Z,36.03
2019-02-17T10:40:17.904Z,32.38
2019-02-17T10:42:46.352Z,35.48
2019-02-17T10:45:15.457Z,34.23
2019-02-17T10:47:45.486Z,38.75
2019-02-17T10:50:14.386Z,35.85
2019-02-17T10:52:42.917Z,37.00
2019-02-17T10:55:13.299Z,37.35
2019-02-17T10:57:41.827Z,38.10
2019-02-17T11:00:16.341Z,40.15
2019-02-17T11:02:47.475Z,36.03
2019-02-17T11:05:15.219Z,37.45
2019-02-17T11:07:44.491Z,33.88
2019-02-17T11:10:14.031Z,31.82
2019-02-17T11:12:42.576Z,34.38
2019-02-17T11:15:17.053Z,31.15
2019-02-17T11:17:45.505Z,35.95
2019-02-17T11:20:14.038Z,33.92
2019-02-17T11:22:42.522Z,34.67
2019-02-17T11:25:13.470Z,31.23
2019-02-17T11:27:41.992Z,32.13
2019-02-17T11:30:22.592Z,32.40
2019-02-17T11:33:30.688Z,31.82
2019-02-17T11:35:59.176Z,32.80
2019-02-17T11:38:27.717Z,29.77
2019-02-17T11:40:56.449Z,30.30
2019-02-17T11:43:25.287Z,34.53
2019-02-17T11:45:54.223Z,27.45
2019-02-17T11:48:23.893Z,32.25
2019-02-17T11:50:52.409Z,29.50
2019-02-17T11:53:20.941Z,26.50
2019-02-17T11:55:49.390Z,25.80
2019-02-17T11:58:17.921Z,27.30
2019-02-17T12:00:46.707Z,28.55
2019-02-17T12:03:15.481Z,27.07
2019-02-17T12:05:44.344Z,30.52
2019-02-17T12:08:12.854Z,30.17
2019-02-17T12:10:43.179Z,27.77
2019-02-17T12:13:11.724Z,25.90
2019-02-17T12:15:42.808Z,27.55
2019-02-17T12:18:11.284Z,33.00
2019-02-17T12:20:41.790Z,24.67
2019-02-17T12:23:15.374Z,23.55
2019-02-17T12:25:45.492Z,27.42
2019-02-17T12:28:27.739Z,31.48
2019-02-17T12:30:56.526Z,24.05
2019-02-17T12:33:25.374Z,24.57
2019-02-17T12:35:54.960Z,29.05
2019-02-17T12:38:23.693Z,24.72
2019-02-17T12:40:52.624Z,22.17
2019-02-17T12:43:24.349Z,29.95
2019-02-17T12:45:53.050Z,31.55
2019-02-17T12:48:21.720Z,22.20
2019-02-17T12:50:50.192Z,24.18
2019-02-17T12:53:18.656Z,26.55
2019-02-17T12:55:47.220Z,24.25
2019-02-17T12:58:16.027Z,21.50
2019-02-17T13:00:44.549Z,23.67
2019-02-17T13:03:13.286Z,23.52
2019-02-17T13:05:43.110Z,23.27
2019-02-17T13:08:11.988Z,25.72
2019-02-17T13:10:40.476Z,20.30
2019-02-17T13:13:09.262Z,19.40
2019-02-17T13:15:37.748Z,24.07
2019-02-17T13:18:06.654Z,22.22
2019-02-17T13:20:35.179Z,18.95
2019-02-17T13:23:03.817Z,24.07
2019-02-17T13:25:32.320Z,20.62
2019-02-17T13:28:00.904Z,23.60
2019-02-17T13:30:29.842Z,18.32
2019-02-17T13:32:58.632Z,17.85
2019-02-17T13:35:28.298Z,21.93
2019-02-17T13:37:57.017Z,18.95
2019-02-17T13:40:25.926Z,18.50
2019-02-17T13:42:54.520Z,20.40
2019-02-17T13:45:25.514Z,21.48
2019-02-17T13:47:54.100Z,18.60
2019-02-17T13:50:22.717Z,19.90
2019-02-17T13:52:54.336Z,17.20
2019-02-17T13:55:24.773Z,21.77
2019-02-17T13:57:53.555Z,19.75
2019-02-17T14:00:24.134Z,19.27
2019-02-17T14:02:52.862Z,19.35
2019-02-17T14:05:21.738Z,18.05
2019-02-17T14:07:50.248Z,21.00
2019-02-17T14:10:20.626Z,17.30
2019-02-17T14:12:49.333Z,18.65
2019-02-17T14:15:22.431Z,18.00
2019-02-17T14:17:50.960Z,18.25
2019-02-17T14:20:19.524Z,20.15
2019-02-17T14:22:48.036Z,20.02
2019-02-17T14:25:21.625Z,15.80
2019-02-17T14:27:50.122Z,20.97
2019-02-17T14:30:19.517Z,18.12
2019-02-17T14:32:49.729Z,19.30
2019-02-17T14:35:18.232Z,20.12
2019-02-17T14:37:46.717Z,18.92
2019-02-17T14:40:15.541Z,18.25
2019-02-17T14:42:44.335Z,19.42
2019-02-17T14:45:15.083Z,19.25
2019-02-17T14:47:45.588Z,18.48
2019-02-17T14:50:14.128Z,20.60
2019-02-17T14:52:43.018Z,20.55
2019-02-17T14:55:12.660Z,17.77
2019-02-17T14:57:41.703Z,17.77
2019-02-17T15:00:15.290Z,19.73
2019-02-17T15:02:44.145Z,18.20
2019-02-17T15:05:12.803Z,17.50
2019-02-17T15:07:41.793Z,16.17
2019-02-17T15:10:11.894Z,18.17
2019-02-17T15:12:42.325Z,18.30
2019-02-17T15:15:15.504Z,15.95
2019-02-17T15:17:44.782Z,17.95
2019-02-17T15:20:15.371Z,17.48
2019-02-17T15:22:44.221Z,17.60
2019-02-17T15:25:13.047Z,15.38
2019-02-17T15:27:41.533Z,16.10
2019-02-17T15:30:14.592Z,16.90
2019-02-17T15:32:45.657Z,16.10
2019-02-17T15:35:15.211Z,18.00
2019-02-17T15:37:43.820Z,17.20
2019-02-17T15:40:13.526Z,15.50
2019-02-17T15:42:43.273Z,14.87
2019-02-17T15:45:13.234Z,18.05
2019-02-17T15:47:42.178Z,17.98
2019-02-17T15:50:14.546Z,17.75
2019-02-17T15:52:44.081Z,15.53
2019-02-17T15:55:15.121Z,18.35
2019-02-17T15:57:44.335Z,13.90
2019-02-17T16:00:16.173Z,12.93
2019-02-17T16:02:44.645Z,13.43
2019-02-17T16:05:13.265Z,14.40
2019-02-17T16:07:41.709Z,15.08
2019-02-17T16:10:12.119Z,15.40
2019-02-17T16:12:41.269Z,13.78
2019-02-17T16:15:24.064Z,14.40
2019-02-17T16:17:52.957Z,12.73
2019-02-17T16:20:21.459Z,14.90
2019-02-17T16:22:50.320Z,14.43
2019-02-17T16:25:19.205Z,20.12
2019-02-17T16:27:57.081Z,14.33
2019-02-17T16:30:27.097Z,16.42
2019-02-17T16:32:55.877Z,19.17
2019-02-17T16:35:24.600Z,20.27
2019-02-17T16:37:54.357Z,18.27
2019-02-17T16:40:25.033Z,18.62
2019-02-17T16:42:54.931Z,20.43
2019-02-17T16:45:23.447Z,18.42
2019-02-17T16:47:52.287Z,13.78
2019-02-17T16:50:25.429Z,16.55
2019-02-17T16:52:54.463Z,13.58
2019-02-17T16:55:22.903Z,13.75
2019-02-17T16:57:51.741Z,15.95
2019-02-17T17:00:25.969Z,12.45
2019-02-17T17:02:56.447Z,15.55
2019-02-17T17:05:26.013Z,14.13
2019-02-17T17:07:55.532Z,17.10
2019-02-17T17:10:24.173Z,15.45
2019-02-17T17:12:52.795Z,14.00
2019-02-17T17:15:21.327Z,15.93
2019-02-17T17:17:50.101Z,11.95
2019-02-17T17:20:21.095Z,12.05
2019-02-17T17:22:49.857Z,10.43
2019-02-17T17:25:18.469Z,17.37
2019-02-17T17:27:46.938Z,13.40
2019-02-17T17:30:16.998Z,17.60
2019-02-17T17:32:45.463Z,15.93
2019-02-17T17:35:16.128Z,16.17
2019-02-17T17:37:44.928Z,14.23
2019-02-17T17:40:17.493Z,10.32
2019-02-17T17:42:47.640Z,11.33
2019-02-17T17:45:23.714Z,9.90
2019-02-17T17:47:54.878Z,13.03
2019-02-17T17:50:23.340Z,12.45
2019-02-17T17:52:52.117Z,8.85
2019-02-17T17:55:20.878Z,8.80
2019-02-17T17:57:49.690Z,8.20
2019-02-17T18:00:20.246Z,16.60
2019-02-17T18:02:49.162Z,20.27
2019-02-17T18:05:17.944Z,20.62
2019-02-17T18:07:46.400Z,12.33
2019-02-17T18:10:18.626Z,18.57
2019-02-17T18:12:47.060Z,12.30
2019-02-17T18:15:17.619Z,20.70
2019-02-17T18:17:54.007Z,24.32
2019-02-17T18:20:16.753Z,16.93
2019-02-17T18:22:45.599Z,14.15
2019-02-17T18:25:15.562Z,17.30
2019-02-17T18:27:45.815Z,11.65
2019-02-17T18:30:19.372Z,14.47
2019-02-17T18:32:48.025Z,10.20
2019-02-17T18:35:20.361Z,10.85
2019-02-17T18:37:47.022Z,14.68
2019-02-17T18:40:17.992Z,12.13
2019-02-17T18:42:46.709Z,14.73
2019-02-17T18:45:16.796Z,14.95
2019-02-17T18:47:45.340Z,16.12
2019-02-17T18:50:15.900Z,16.07
2019-02-17T18:52:44.381Z,18.07
2019-02-17T18:55:15.338Z,15.93
2019-02-17T18:57:50.016Z,16.97
2019-02-17T19:00:19.352Z,17.12
2019-02-17T19:02:47.838Z,19.17
2019-02-17T19:05:16.375Z,19.85
2019-02-17T19:07:44.861Z,33.35
2019-02-17T19:10:14.841Z,30.00
2019-02-17T19:12:43.405Z,28.38
2019-02-17T19:15:22.302Z,15.72
2019-02-17T19:17:50.838Z,23.40
2019-02-17T19:20:22.197Z,26.15
2019-02-17T19:22:50.669Z,17.32
2019-02-17T19:25:19.507Z,22.07
2019-02-17T19:27:48.206Z,17.23
2019-02-17T19:30:19.326Z,19.27
2019-02-17T19:32:49.633Z,17.95
2019-02-17T19:35:18.354Z,13.22
2019-02-17T19:37:46.836Z,19.55
2019-02-17T19:40:16.464Z,25.68
2019-02-17T19:42:44.915Z,16.52
2019-02-17T19:45:17.675Z,23.55
2019-02-17T19:47:46.485Z,20.00
2019-02-17T19:50:17.105Z,25.45
2019-02-17T19:52:46.476Z,18.62
2019-02-17T19:55:16.026Z,16.60
2019-02-17T19:57:48.907Z,18.42
2019-02-17T20:00:19.099Z,24.00
2019-02-17T20:02:49.263Z,26.82
2019-02-17T20:05:22.349Z,26.90
2019-02-17T20:07:52.952Z,18.50
2019-02-17T20:10:21.490Z,15.85
2019-02-17T20:12:50.421Z,17.05
2019-02-17T20:15:25.158Z,19.82
2019-02-17T20:17:53.935Z,14.70
2019-02-17T20:20:23.965Z,18.67
2019-02-17T20:22:52.847Z,19.92
2019-02-17T20:25:21.432Z,23.92
2019-02-17T20:27:51.845Z,28.83
2019-02-17T20:30:21.023Z,20.40
2019-02-17T20:32:49.565Z,26.27
2019-02-17T20:35:18.033Z,19.80
2019-02-17T20:37:46.494Z,20.52
2019-02-17T20:40:16.698Z,22.45
2019-02-17T20:42:51.233Z,26.97
2019-02-17T20:45:22.510Z,21.00
2019-02-17T20:47:52.033Z,18.92
2019-02-17T20:50:27.629Z,20.43
2019-02-17T20:52:56.209Z,21.27
2019-02-17T20:55:24.659Z,21.00
2019-02-17T20:57:53.129Z,23.55
2019-02-17T21:00:25.101Z,17.87
2019-02-17T21:02:53.637Z,23.70
2019-02-17T21:05:22.137Z,22.52
2019-02-17T21:07:52.180Z,19.32
2019-02-17T21:10:22.857Z,18.75
2019-02-17T21:12:51.733Z,23.30
2019-02-17T21:15:21.287Z,17.70
2019-02-17T21:17:50.081Z,18.42
2019-02-17T21:20:19.523Z,27.93
2019-02-17T21:22:53.076Z,17.17
2019-02-17T21:25:22.988Z,13.95
2019-02-17T21:27:51.503Z,10.82
2019-02-17T21:30:20.431Z,14.78
2019-02-17T21:32:49.132Z,12.37
2019-02-17T21:35:18.043Z,14.78
2019-02-17T21:37:46.845Z,24.72
2019-02-17T21:40:15.441Z,13.55
2019-02-17T21:42:46.846Z,14.15
2019-02-17T21:45:16.527Z,11.12
2019-02-17T21:47:45.283Z,12.03
2019-02-17T21:50:16.414Z,13.72
2019-02-17T21:52:45.215Z,15.83
2019-02-17T21:55:14.861Z,12.47
2019-02-17T21:57:43.354Z,12.70
2019-02-17T22:00:19.489Z,11.97
2019-02-17T22:02:48.377Z,36.58
2019-02-17T22:05:16.928Z,30.95
2019-02-17T22:07:46.581Z,14.83
2019-02-17T22:10:19.409Z,12.85
2019-02-17T22:12:47.866Z,17.48
2019-02-17T22:15:20.447Z,13.22
2019-02-17T22:17:49.203Z,11.12
2019-02-17T22:20:18.077Z,12.85
2019-02-17T22:22:46.633Z,11.00
2019-02-17T22:25:15.522Z,14.10
2019-02-17T22:27:44.030Z,14.13
2019-02-17T22:30:14.631Z,12.13
2019-02-17T22:32:43.621Z,10.05
2019-02-17T22:35:12.126Z,11.55
2019-02-17T22:37:43.164Z,16.77
2019-02-17T22:40:15.145Z,13.05
2019-02-17T22:42:43.654Z,17.12
2019-02-17T22:45:12.928Z,10.98
2019-02-17T22:47:43.570Z,9.70
2019-02-17T22:50:14.082Z,15.60
2019-02-17T22:52:43.033Z,19.85
2019-02-17T22:55:12.927Z,18.12
2019-02-17T22:57:41.700Z,11.55
2019-02-17T23:00:31.416Z,9.25
2019-02-17T23:03:03.039Z,15.93
2019-02-17T23:05:32.316Z,17.50
2019-02-17T23:08:03.000Z,10.53
2019-02-17T23:10:31.761Z,11.35
2019-02-17T23:13:00.999Z,15.93
2019-02-17T23:15:29.852Z,10.53
2019-02-17T23:18:03.315Z,15.08
2019-02-17T23:20:32.036Z,14.78
2019-02-17T23:23:00.606Z,10.45
2019-02-17T23:25:29.055Z,14.90
2019-02-17T23:27:57.752Z,12.10
2019-02-17T23:30:26.498Z,12.30
2019-02-17T23:32:55.252Z,10.98
2019-02-17T23:35:23.992Z,13.10
2019-02-17T23:37:52.750Z,11.25
2019-02-17T23:40:21.517Z,10.20
2019-02-17T23:42:49.993Z,11.10
2019-02-17T23:45:18.509Z,20.95
2019-02-17T23:47:46.953Z,11.78
2019-02-17T23:50:15.858Z,20.90
2019-02-17T23:52:44.588Z,10.15
2019-02-17T23:55:13.444Z,8.58
2019-02-17T23:57:44.790Z,9.83
